Terminal Aerodrome Forecast
Issued by NWS

Home | Current Version | Previous Version | Text Only | Print | Product List | Glossary On
Versions: 1 2 3 4 5 6 7 8 9 10 11 12
000
FTUS45 KLKN 141720
TAFELY
TAF
KELY 141720Z 1418/1518 36008KT P6SM FEW250
     FM150400 17010KT P6SM FEW150 SCT250
     FM151700 17006KT P6SM BKN250=

USA.gov is the U.S. government's official web portal to all federal, state and local government web resources and services.